Time;durP1;ratioP1;P1;durP2;ratioP2;P2;SDS_P1;SDS_P2;PMS_P1;PMS_P2;Temp;Humidity;BMP_temperature;BMP_pressure;BME280_temperature;BME280_humidity;BME280_pressure;Samples;Min_cycle;Max_cycle;Signal;HPM_P1;HPM_P2
2022/07/02 00:01:55;;;;;;;3.63;3.28;;;24.20;73.20;;;23.18;58.42;100163.22;10311900;28;97645;-80
2022/07/02 00:06:59;;;;;;;4.13;3.22;;;24.10;73.10;;;23.17;58.42;100177.84;10331435;28;96735;-79
2022/07/02 00:12:02;;;;;;;3.47;2.97;;;24.10;73.00;;;23.17;58.49;100199.53;10331425;28;97733;-82
2022/07/02 00:17:05;;;;;;;7.38;3.17;;;24.20;73.00;;;23.13;58.71;100219.25;10315860;28;96824;-79
2022/07/02 00:22:09;;;;;;;3.65;2.85;;;24.10;73.40;;;23.05;59.15;100208.84;10323111;28;96745;-82
2022/07/02 00:27:18;;;;;;;4.18;2.80;;;24.00;73.60;;;23.03;59.36;100209.09;10339866;28;98641;-83
2022/07/02 00:32:22;;;;;;;6.25;3.10;;;24.00;73.80;;;22.96;59.79;100184.03;10317927;28;97628;-83
2022/07/02 00:37:28;;;;;;;5.65;2.75;;;24.00;74.30;;;22.92;59.59;100169.38;10322662;28;96681;-82
2022/07/02 00:42:34;;;;;;;3.45;2.70;;;23.90;74.20;;;22.91;59.33;100148.75;10331149;28;98039;-83
2022/07/02 00:47:39;;;;;;;4.43;2.65;;;23.90;73.80;;;22.91;58.86;100148.75;10297006;28;97734;-83
2022/07/02 00:52:41;;;;;;;3.58;2.35;;;24.00;73.90;;;22.96;57.83;100132.56;10335553;28;98810;-82
2022/07/02 00:57:48;;;;;;;4.65;2.50;;;24.00;72.50;;;23.02;57.44;100141.56;10340608;28;99043;-84
2022/07/02 01:02:55;;;;;;;4.57;2.65;;;24.00;72.10;;;22.88;58.48;100150.06;10312301;28;98002;-84
2022/07/02 01:13:23;;;;;;;3.70;2.35;;;23.80;73.50;;;22.54;60.38;100165.53;10316647;28;97038;-83
2022/07/02 01:18:27;;;;;;;3.08;2.10;;;23.60;74.80;;;22.43;60.06;100169.13;10305551;28;97454;-81
2022/07/02 01:23:30;;;;;;;2.90;2.30;;;23.50;74.70;;;22.27;61.52;100192.44;10310694;28;96591;-84
2022/07/02 01:28:33;;;;;;;4.43;2.60;;;23.30;75.80;;;22.04;62.18;100190.66;10311668;28;97575;-81
2022/07/02 01:33:35;;;;;;;3.22;2.42;;;23.10;77.20;;;21.73;64.17;100201.97;10328702;28;97170;-82
2022/07/02 01:38:38;;;;;;;2.78;2.40;;;22.80;79.10;;;21.46;65.22;100196.28;10338636;28;97628;-81
2022/07/02 01:43:41;;;;;;;3.00;2.50;;;22.50;80.20;;;21.24;65.90;100233.94;10353302;28;97818;-81
2022/07/02 01:48:44;;;;;;;3.28;2.03;;;22.30;81.50;;;20.93;67.23;100235.94;10336388;28;96755;-85
2022/07/02 01:53:47;;;;;;;2.78;2.30;;;21.90;82.80;;;20.69;68.26;100232.41;10322981;28;97126;-86
2022/07/02 01:58:50;;;;;;;5.75;1.80;;;21.60;83.70;;;20.55;68.49;100237.19;10323353;28;96576;-83
2022/07/02 02:03:53;;;;;;;3.03;1.88;;;21.50;84.50;;;20.41;68.93;100237.59;10307709;28;99039;-80
2022/07/02 02:08:56;;;;;;;3.05;1.60;;;21.40;85.10;;;20.24;69.22;100240.13;10331453;28;96501;-84
2022/07/02 02:13:59;;;;;;;1.63;1.50;;;21.20;86.00;;;20.07;69.79;100212.16;10351135;28;96769;-80
2022/07/02 02:19:03;;;;;;;3.58;1.42;;;21.00;86.40;;;19.88;69.91;100196.03;10316032;28;96600;-80
2022/07/02 02:24:06;;;;;;;3.65;1.80;;;20.90;87.00;;;19.74;70.56;100168.44;10323215;28;96799;-83
2022/07/02 02:29:10;;;;;;;3.00;1.25;;;20.70;87.30;;;19.69;70.19;100145.91;10341457;28;96510;-82
2022/07/02 02:34:13;;;;;;;2.03;1.52;;;20.70;87.40;;;19.65;70.65;100117.75;10323586;28;96687;-82
2022/07/02 02:39:16;;;;;;;1.88;1.40;;;20.70;87.40;;;19.69;70.65;100162.09;10347730;28;97179;-81
2022/07/02 02:44:19;;;;;;;1.90;1.55;;;20.80;87.30;;;19.66;70.20;100174.13;10317270;28;97047;-80
2022/07/02 02:49:22;;;;;;;1.55;1.13;;;20.80;87.00;;;19.53;69.69;100182.38;10317919;28;96496;-81
2022/07/02 02:54:25;;;;;;;3.47;1.20;;;20.70;86.80;;;19.50;69.93;100205.22;10337529;22;96718;-80
2022/07/02 02:59:28;;;;;;;3.38;1.25;;;20.60;87.00;;;19.46;69.98;100233.66;10291474;28;98319;-83
2022/07/02 03:04:31;;;;;;;1.63;1.20;;;20.50;87.50;;;19.40;70.06;100234.56;10293572;28;97571;-88
2022/07/02 03:09:33;;;;;;;1.45;1.15;;;20.50;87.70;;;19.30;70.20;100246.88;10266693;28;97011;-84
2022/07/02 03:14:37;;;;;;;1.65;1.33;;;20.40;88.20;;;19.12;70.81;100245.81;10275604;28;97210;-85
2022/07/02 03:19:40;;;;;;;1.65;1.10;;;20.20;88.80;;;19.07;71.59;100261.84;10311694;28;96663;-86
2022/07/02 03:24:43;;;;;;;1.17;1.08;;;20.10;89.60;;;19.02;71.59;100279.72;10295140;28;97608;-83
2022/07/02 03:29:46;;;;;;;1.80;1.10;;;20.10;90.10;;;18.97;72.09;100286.59;10293021;28;97560;-89
2022/07/02 03:34:49;;;;;;;2.42;1.70;;;20.10;90.40;;;18.91;72.82;100300.94;10297568;28;97422;-83
2022/07/02 03:39:52;;;;;;;2.05;1.38;;;20.00;90.80;;;18.87;73.02;100299.72;10291591;28;96687;-84
2022/07/02 03:44:56;;;;;;;1.70;1.58;;;20.00;91.10;;;18.84;73.75;100305.53;10293981;28;98645;-87
2022/07/02 03:49:59;;;;;;;2.78;1.70;;;19.90;91.70;;;18.85;74.02;100306.38;10274895;28;96764;-87
2022/07/02 03:55:02;;;;;;;3.67;1.83;;;19.90;92.30;;;18.92;74.61;100310.66;10266569;28;97299;-84
2022/07/02 04:00:08;;;;;;;2.22;2.03;;;19.90;92.70;;;19.04;74.61;100310.75;10289717;28;96743;-86
2022/07/02 04:05:11;;;;;;;2.13;1.92;;;20.10;93.00;;;19.20;74.02;100314.78;10268800;28;97009;-94
2022/07/02 04:10:15;;;;;;;3.85;2.15;;;20.20;93.00;;;19.34;73.77;100323.53;10277881;28;96661;-92
2022/07/02 04:15:20;;;;;;;3.08;2.00;;;20.30;93.10;;;19.44;73.58;100316.59;10290127;28;96644;-93
2022/07/02 04:20:24;;;;;;;4.60;2.08;;;20.50;93.00;;;19.59;73.20;100328.91;10335407;28;96366;-93
2022/07/02 04:25:28;;;;;;;3.63;2.20;;;20.60;92.80;;;19.72;72.64;100329.59;10296165;28;97640;-93
2022/07/02 04:30:31;;;;;;;2.35;1.90;;;20.70;92.70;;;19.85;71.78;100347.50;10288542;28;97435;-86
2022/07/02 04:35:33;;;;;;;2.30;2.08;;;20.80;92.50;;;19.92;71.35;100348.25;10303280;28;97736;-89
2022/07/02 04:40:36;;;;;;;2.97;2.00;;;20.90;92.40;;;19.96;71.16;100345.91;10289874;28;97214;-86
2022/07/02 04:45:39;;;;;;;2.40;1.95;;;20.90;92.40;;;20.08;70.94;100362.16;10282985;28;98193;-90
2022/07/02 04:50:42;;;;;;;2.72;2.25;;;21.00;92.30;;;20.15;70.51;100360.19;10303699;28;98556;-89
2022/07/02 04:55:46;;;;;;;3.47;2.17;;;21.10;92.00;;;20.19;70.03;100362.22;10277551;28;96683;-89
2022/07/02 05:00:49;;;;;;;2.10;1.90;;;21.20;91.80;;;20.35;70.24;100382.38;10287711;28;97660;-89
2022/07/02 05:05:52;;;;;;;2.45;1.67;;;21.30;91.80;;;20.46;69.74;100397.84;10290205;28;96630;-88
2022/07/02 05:10:56;;;;;;;2.65;1.52;;;21.50;91.60;;;20.61;69.34;100399.31;10298112;28;98485;-91
2022/07/02 05:16:00;;;;;;;1.88;1.67;;;21.60;91.30;;;20.71;68.77;100403.09;10275888;28;98739;-87
2022/07/02 05:21:04;;;;;;;3.25;2.25;;;21.70;91.00;;;20.78;68.14;100403.00;10313255;28;98646;-87
2022/07/02 05:26:07;;;;;;;3.35;1.98;;;21.80;90.80;;;20.85;67.84;100407.25;10295773;28;96774;-85
2022/07/02 05:31:10;;;;;;;2.40;1.80;;;21.90;90.60;;;20.94;67.67;100420.44;10295260;28;98972;-85
2022/07/02 05:36:13;;;;;;;3.08;1.80;;;21.90;90.50;;;21.01;67.36;100429.28;10300692;28;96917;-85
2022/07/02 05:41:16;;;;;;;4.65;2.08;;;22.00;90.30;;;21.09;67.15;100437.84;10299123;28;96702;-85
2022/07/02 05:46:19;;;;;;;2.13;1.70;;;22.10;90.40;;;21.19;66.86;100450.00;10279761;28;96590;-84
2022/07/02 05:51:22;;;;;;;3.13;2.20;;;22.20;90.00;;;21.34;66.55;100450.38;10309726;28;98524;-88
2022/07/02 05:56:25;;;;;;;3.08;1.52;;;22.30;89.70;;;21.39;65.79;100445.13;10263896;28;97364;-83
2022/07/02 06:01:28;;;;;;;2.80;2.20;;;22.40;89.00;;;21.36;65.44;100457.22;10279600;28;98415;-85
2022/07/02 06:11:52;;;;;;;2.42;1.90;;;22.40;88.40;;;21.44;65.49;100464.16;10287782;28;98550;-86
2022/07/02 06:16:55;;;;;;;4.00;2.40;;;22.40;88.70;;;21.58;64.84;100473.69;10287055;28;98660;-86
2022/07/02 06:21:58;;;;;;;3.17;1.83;;;22.60;88.10;;;21.74;64.84;100463.25;10292219;28;96602;-85
2022/07/02 06:27:01;;;;;;;2.83;2.10;;;22.70;88.10;;;21.84;63.92;100463.50;10281446;28;97135;-87
2022/07/02 06:32:04;;;;;;;3.03;2.20;;;22.80;87.00;;;21.94;63.93;100466.41;10280941;28;97205;-85
2022/07/02 06:37:07;;;;;;;2.40;2.13;;;22.90;86.80;;;22.11;64.00;100470.09;10300577;28;96489;-85
2022/07/02 06:42:19;;;;;;;3.70;2.58;;;23.10;86.80;;;22.32;62.44;100484.09;10294157;28;97260;-85
2022/07/02 06:47:23;;;;;;;3.05;2.35;;;23.30;85.40;;;22.48;62.07;100456.25;10281902;28;96727;-85
2022/07/02 06:52:26;;;;;;;2.90;2.10;;;23.50;85.00;;;22.63;61.64;100461.16;10315332;28;96714;-84
2022/07/02 06:57:29;;;;;;;3.17;2.03;;;23.60;84.20;;;22.76;61.09;100466.28;10270748;28;96843;-85
2022/07/02 07:02:32;;;;;;;2.50;2.05;;;23.70;83.60;;;22.87;60.19;100467.34;10267747;28;98561;-84
2022/07/02 07:07:36;;;;;;;2.50;2.10;;;23.80;82.90;;;23.00;60.61;100480.59;10280899;28;97687;-85
2022/07/02 07:12:39;;;;;;;2.70;2.10;;;23.90;83.00;;;23.10;59.31;100480.78;10299851;28;97426;-84
2022/07/02 07:17:43;;;;;;;2.83;2.17;;;24.00;81.70;;;23.18;58.92;100488.50;10284818;28;98559;-81
2022/07/02 07:22:46;;;;;;;3.95;1.98;;;24.10;81.20;;;23.30;59.36;100488.44;10295297;28;97407;-86
2022/07/02 07:27:49;;;;;;;2.67;2.20;;;24.20;81.20;;;23.44;58.55;100478.91;10295040;28;98635;-87
2022/07/02 07:32:52;;;;;;;10.82;2.60;;;24.30;80.40;;;23.53;58.06;100482.06;10298722;28;98553;-86
2022/07/02 07:37:59;;;;;;;5.47;2.53;;;24.50;79.80;;;23.67;57.11;100488.81;10288172;28;96700;-82
2022/07/02 07:43:03;;;;;;;3.92;1.90;;;24.60;79.10;;;23.81;56.56;100497.47;10269458;28;97483;-83
2022/07/02 07:48:06;;;;;;;2.95;2.17;;;24.70;78.30;;;23.91;56.70;100499.50;10290909;28;96670;-85
2022/07/02 07:53:09;;;;;;;2.88;1.80;;;24.80;78.10;;;24.16;56.88;100499.03;10277556;28;96755;-84
2022/07/02 07:58:12;;;;;;;3.20;1.85;;;25.10;78.40;;;24.40;56.19;100505.91;10274436;28;98079;-85
2022/07/02 08:03:17;;;;;;;2.80;2.17;;;25.30;77.40;;;24.56;54.80;100498.78;10285356;28;98759;-80
2022/07/02 08:08:24;;;;;;;3.80;2.30;;;25.50;76.30;;;24.70;54.26;100505.47;10310270;28;96802;-79
2022/07/02 08:13:27;;;;;;;2.33;2.13;;;25.60;75.20;;;24.82;53.57;100511.59;10277973;28;101056;-80
2022/07/02 08:18:32;;;;;;;3.65;2.15;;;25.70;74.90;;;24.99;53.51;100492.47;10309419;28;96628;-82
2022/07/02 08:23:35;;;;;;;4.20;2.10;;;25.90;74.40;;;25.20;52.74;100503.63;10310428;28;96746;-80
2022/07/02 08:28:38;;;;;;;3.10;2.15;;;26.10;73.60;;;25.37;52.67;100498.88;10303482;28;97885;-82
2022/07/02 08:33:41;;;;;;;2.90;2.38;;;26.30;73.40;;;25.50;52.11;100500.34;10308468;28;96562;-82
2022/07/02 08:38:44;;;;;;;3.15;2.15;;;26.40;73.10;;;25.65;51.54;100489.56;10278559;28;98489;-80
2022/07/02 08:43:51;;;;;;;3.90;2.17;;;26.60;72.30;;;25.72;50.82;100490.16;10268654;28;96707;-81
2022/07/02 08:48:57;;;;;;;2.55;2.10;;;26.60;71.50;;;25.88;50.55;100475.63;10286507;28;96737;-80
2022/07/02 08:54:00;;;;;;;3.67;2.30;;;26.80;71.30;;;25.99;49.95;100479.22;10307007;28;98743;-82
2022/07/02 08:59:03;;;;;;;3.72;2.08;;;26.90;70.40;;;26.13;49.49;100479.56;10282335;28;97268;-82
2022/07/02 09:04:07;;;;;;;3.10;2.55;;;27.10;70.00;;;26.29;49.63;100491.38;10285317;28;97178;-83
2022/07/02 09:09:10;;;;;;;3.78;2.35;;;27.20;70.30;;;26.38;49.07;100492.50;10310926;28;96593;-83
2022/07/02 09:14:14;;;;;;;3.90;2.33;;;27.30;69.20;;;26.54;48.70;100482.53;10289380;28;98297;-84
2022/07/02 09:19:20;;;;;;;3.78;2.60;;;27.40;68.70;;;26.68;48.17;100470.03;10275950;28;96702;-84
2022/07/02 09:24:35;;;;;;;5.00;2.85;;;27.60;68.30;;;26.82;47.13;100471.19;10280562;28;98559;-82
2022/07/02 09:29:55;;;;;;;4.30;3.00;;;27.70;66.60;;;26.87;47.23;100473.06;10289328;28;99191;-80
2022/07/02 09:34:57;;;;;;;3.20;2.80;;;27.80;66.60;;;26.93;46.45;100458.41;10304862;28;97163;-80
2022/07/02 09:40:03;;;;;;;5.15;2.70;;;27.80;66.10;;;27.05;46.54;100460.84;10293487;28;96821;-79
2022/07/02 09:45:10;;;;;;;6.53;2.72;;;27.90;66.30;;;27.26;46.49;100459.81;10286269;28;96731;-79
2022/07/02 09:50:13;;;;;;;3.75;2.50;;;28.10;65.90;;;27.47;46.10;100458.75;10288978;28;96825;-80
2022/07/02 09:55:26;;;;;;;3.95;2.38;;;28.30;65.50;;;27.58;45.71;100461.44;10286396;28;96876;-81
2022/07/02 10:00:32;;;;;;;3.40;2.85;;;28.50;65.10;;;27.76;45.05;100466.34;10280317;28;97786;-81
2022/07/02 10:05:35;;;;;;;4.47;2.90;;;28.60;64.30;;;27.71;44.04;100456.28;10274245;28;96885;-81
2022/07/02 10:10:38;;;;;;;8.32;2.75;;;28.60;63.50;;;27.69;44.49;100461.19;10298024;28;98655;-80
2022/07/02 10:15:52;;;;;;;2.97;2.60;;;28.50;63.50;;;27.81;44.31;100458.16;10294013;28;97111;-80
2022/07/02 10:20:56;;;;;;;3.50;2.15;;;28.70;63.50;;;28.02;43.58;100463.59;10274384;28;98365;-80
2022/07/02 10:26:00;;;;;;;5.22;2.42;;;28.90;63.20;;;28.18;43.50;100468.72;10296568;28;96754;-81
2022/07/02 10:31:05;;;;;;;3.10;2.35;;;29.00;62.20;;;28.35;43.01;100453.94;10309789;28;98796;-80
2022/07/02 10:36:15;;;;;;;2.38;2.10;;;29.20;62.00;;;28.43;41.87;100461.53;10290489;28;97771;-81
2022/07/02 10:41:25;;;;;;;3.80;2.35;;;29.30;60.70;;;28.62;41.91;100457.09;10297362;28;97048;-80
2022/07/02 10:46:35;;;;;;;3.63;2.05;;;29.50;60.30;;;28.69;41.79;100460.34;10293457;28;97199;-79
2022/07/02 10:51:38;;;;;;;5.55;2.20;;;29.50;60.80;;;28.83;40.76;100454.25;10285881;28;97679;-81
2022/07/02 10:56:54;;;;;;;4.18;2.63;;;29.70;59.70;;;28.88;40.84;100452.28;10295632;28;96783;-80
2022/07/02 11:02:09;;;;;;;3.38;2.10;;;29.80;59.20;;;29.04;40.88;100444.84;10309702;28;96679;-82
2022/07/02 11:07:13;;;;;;;3.58;2.10;;;29.90;59.20;;;29.20;40.09;100440.06;10310131;28;96617;-82
2022/07/02 11:12:27;;;;;;;3.08;2.03;;;30.10;58.70;;;29.28;39.06;100443.00;10294656;28;97338;-82
2022/07/02 11:17:35;;;;;;;5.35;2.45;;;30.20;57.00;;;29.41;39.74;100449.75;10260635;28;98502;-82
2022/07/02 11:22:40;;;;;;;2.28;2.00;;;30.30;58.10;;;29.57;38.13;100440.31;10274840;28;97541;-82
2022/07/02 11:27:43;;;;;;;2.97;2.05;;;30.50;56.90;;;29.55;38.47;100442.53;10291558;28;96731;-82
2022/07/02 11:32:46;;;;;;;3.28;1.83;;;30.50;56.90;;;29.58;38.34;100439.22;10292818;28;97123;-83
2022/07/02 11:37:49;;;;;;;2.90;1.90;;;30.50;56.80;;;29.73;38.34;100440.16;10260611;28;97297;-81
2022/07/02 11:42:52;;;;;;;2.28;1.85;;;30.60;56.50;;;29.83;37.82;100440.06;10278456;28;97522;-81
2022/07/02 11:47:55;;;;;;;3.40;1.80;;;30.70;56.20;;;29.90;37.68;100432.31;10271915;28;96659;-83
2022/07/02 11:52:59;;;;;;;3.65;1.80;;;30.80;55.90;;;29.97;37.60;100435.50;10282737;28;97308;-82
2022/07/02 11:58:02;;;;;;;5.75;1.90;;;30.90;56.00;;;29.99;37.82;100425.09;10294710;28;98350;-82
2022/07/02 12:03:12;;;;;;;3.03;2.03;;;30.80;56.20;;;29.96;36.95;100425.66;10294958;28;97314;-82
2022/07/02 12:08:16;;;;;;;3.75;2.10;;;30.90;55.00;;;30.05;37.20;100421.19;10259577;28;97379;-82
2022/07/02 12:13:19;;;;;;;2.55;1.85;;;31.00;55.40;;;30.23;36.55;100416.91;10290372;28;97909;-82
2022/07/02 12:18:22;;;;;;;3.80;1.75;;;31.10;54.40;;;30.36;36.25;100407.94;10283381;28;96654;-84
2022/07/02 12:23:25;;;;;;;2.60;2.00;;;31.30;54.50;;;30.57;36.20;100413.13;10275058;28;96595;-81
2022/07/02 12:34:00;;;;;;;4.47;1.73;;;31.50;54.30;;;30.74;35.54;100409.91;10251700;28;96915;-82
2022/07/02 12:39:03;;;;;;;3.08;1.70;;;31.60;53.80;;;30.90;35.41;100392.94;10279716;28;97323;-80
2022/07/02 12:44:14;;;;;;;2.08;1.42;;;31.80;53.70;;;30.98;35.50;100388.69;10261271;28;97540;-84
2022/07/02 12:49:23;;;;;;;4.50;1.70;;;31.80;53.20;;;31.00;35.26;100378.22;10291617;28;96582;-86
2022/07/02 12:54:38;;;;;;;1.90;1.60;;;31.90;53.10;;;31.12;34.71;100372.25;10272232;28;97023;-85
2022/07/02 12:59:42;;;;;;;2.60;1.50;;;32.00;52.60;;;31.27;34.68;100373.97;10293896;28;96422;-83
2022/07/02 13:04:45;;;;;;;4.18;1.60;;;32.10;52.40;;;31.30;34.29;100367.84;10278259;28;98463;-85
2022/07/02 13:09:48;;;;;;;3.38;1.80;;;32.20;52.10;;;31.31;34.20;100373.06;10292172;28;96759;-84
2022/07/02 13:14:51;;;;;;;3.25;1.90;;;32.10;52.20;;;31.22;33.98;100379.50;10308900;28;96637;-82
2022/07/02 13:19:54;;;;;;;3.85;1.70;;;32.10;51.80;;;31.09;33.95;100373.69;10298850;28;100199;-85
2022/07/02 13:24:58;;;;;;;2.05;1.42;;;31.90;52.00;;;31.10;34.72;100386.28;10307158;28;96787;-83
2022/07/02 13:30:01;;;;;;;6.25;1.77;;;31.90;52.20;;;31.15;34.43;100372.47;10277753;28;97884;-83
2022/07/02 13:35:08;;;;;;;3.50;1.60;;;31.90;52.10;;;31.18;34.62;100371.03;10265035;28;97410;-84
2022/07/02 13:40:14;;;;;;;5.90;1.60;;;32.10;52.20;;;31.26;34.36;100366.84;10280437;28;96679;-86
2022/07/02 13:45:17;;;;;;;2.22;1.50;;;32.20;51.70;;;31.17;34.02;100374.91;10301828;28;98509;-85
2022/07/02 13:50:22;;;;;;;3.35;1.58;;;32.10;51.40;;;31.07;33.92;100373.19;10299940;28;98508;-84
2022/07/02 13:55:25;;;;;;;3.10;1.73;;;32.00;51.30;;;31.11;34.54;100363.22;10298395;28;96634;-86
2022/07/02 14:00:29;;;;;;;2.90;1.50;;;32.10;51.80;;;31.25;34.03;100360.53;10295515;28;98567;-88
2022/07/02 14:05:32;;;;;;;2.78;1.58;;;32.20;51.30;;;31.33;33.88;100368.06;10316618;28;96513;-88
2022/07/02 14:10:35;;;;;;;3.58;1.52;;;32.30;51.40;;;31.25;33.75;100363.28;10282847;28;96639;-84
2022/07/02 14:15:38;;;;;;;3.17;1.55;;;32.30;51.20;;;31.35;34.29;100348.53;10264084;28;97385;-84
2022/07/02 14:20:41;;;;;;;4.28;1.50;;;32.30;51.50;;;31.57;33.44;100350.63;10284467;28;96770;-81
2022/07/02 14:25:44;;;;;;;3.47;1.40;;;32.50;50.90;;;31.65;33.32;100350.72;10301064;28;97622;-83
2022/07/02 14:30:52;;;;;;;2.33;1.30;;;32.60;50.80;;;31.61;32.93;100335.16;10298711;28;96672;-83
2022/07/02 14:35:57;;;;;;;4.18;1.35;;;32.50;50.50;;;31.52;32.94;100326.81;10288957;28;96547;-82
2022/07/02 14:46:31;;;;;;;2.47;1.30;;;32.60;50.30;;;31.85;32.69;100324.00;10301763;28;96697;-86
2022/07/02 14:51:34;;;;;;;4.93;1.50;;;32.70;50.30;;;31.86;32.50;100320.94;10276749;28;97617;-84
2022/07/02 14:56:37;;;;;;;3.80;1.45;;;32.70;49.90;;;31.66;32.27;100327.59;10293723;28;97392;-83
2022/07/02 15:01:41;;;;;;;3.88;1.63;;;32.50;49.80;;;31.55;32.33;100326.22;10291052;28;96767;-81
2022/07/02 15:06:45;;;;;;;1.95;1.50;;;32.30;49.70;;;31.48;31.93;100324.97;10295245;28;96499;-82
2022/07/02 15:11:47;;;;;;;2.33;1.33;;;32.20;49.20;;;31.45;31.59;100323.66;10312284;28;96649;-80
2022/07/02 15:16:50;;;;;;;2.00;1.50;;;32.20;48.70;;;31.27;31.65;100310.81;10279418;28;96643;-84
2022/07/02 15:21:58;;;;;;;3.22;1.42;;;32.00;48.80;;;31.30;31.32;100313.75;10282225;28;96479;-83
2022/07/02 15:27:08;;;;;;;3.17;1.37;;;32.10;48.60;;;31.21;31.92;100326.53;10292413;28;96634;-83
2022/07/02 15:32:13;;;;;;;1.45;1.27;;;32.00;48.70;;;31.11;32.06;100305.56;10273627;28;96611;-85
2022/07/02 15:37:17;;;;;;;6.30;2.03;;;31.90;49.00;;;31.02;32.14;100315.63;10273732;28;96707;-83
2022/07/02 15:42:24;;;;;;;2.15;1.50;;;31.70;49.00;;;30.88;32.00;100301.84;10293848;28;100085;-84
2022/07/02 15:47:29;;;;;;;2.42;1.55;;;31.70;49.10;;;30.99;32.45;100312.66;10290431;28;97059;-81
2022/07/02 15:52:43;;;;;;;1.77;1.50;;;31.70;49.40;;;31.01;32.08;100307.69;10266989;28;96861;-83
2022/07/02 15:57:53;;;;;;;3.50;1.63;;;31.80;49.30;;;31.09;32.18;100304.25;10324615;28;96630;-84
2022/07/02 16:02:59;;;;;;;3.22;1.30;;;31.90;49.00;;;31.15;32.13;100305.78;10291332;28;98576;-84
2022/07/02 16:08:05;;;;;;;2.20;1.50;;;32.00;48.90;;;31.27;31.19;100308.06;10291936;28;97342;-81
2022/07/02 16:13:08;;;;;;;1.60;1.48;;;32.10;48.10;;;31.13;31.08;100311.59;10274124;28;99381;-82
2022/07/02 16:18:13;;;;;;;2.45;1.45;;;32.10;47.60;;;31.11;31.01;100316.53;10286702;28;96695;-83
2022/07/02 16:23:17;;;;;;;5.03;1.65;;;32.10;47.80;;;30.96;31.55;100305.84;10312582;28;97512;-86
2022/07/02 16:28:21;;;;;;;1.98;1.67;;;32.00;48.00;;;30.85;32.04;100318.13;10289289;28;96776;-82
2022/07/02 16:33:42;;;;;;;3.35;2.10;;;31.80;48.30;;;30.71;32.53;100311.75;10294261;28;97084;-82
2022/07/02 16:38:45;;;;;;;3.78;1.80;;;31.70;49.10;;;30.61;32.73;100313.53;10291769;28;96668;-85
2022/07/02 16:43:54;;;;;;;3.30;2.10;;;31.60;49.20;;;30.39;32.79;100321.53;10308256;28;98610;-82
2022/07/02 16:49:05;;;;;;;2.28;1.70;;;31.40;49.30;;;30.33;33.06;100322.72;10305866;28;98156;-82
2022/07/02 16:54:14;;;;;;;3.42;1.95;;;31.30;49.70;;;30.32;32.85;100323.84;10293477;28;96533;-83
2022/07/02 16:59:21;;;;;;;3.75;1.77;;;31.20;49.40;;;30.30;32.91;100321.41;10293988;28;96736;-83
2022/07/02 17:04:28;;;;;;;2.60;2.03;;;31.20;49.40;;;30.34;32.73;100327.91;10299854;28;96641;-81
2022/07/02 17:09:31;;;;;;;2.30;1.85;;;31.30;49.20;;;30.34;32.84;100322.41;10290139;28;96847;-85
2022/07/02 17:14:34;;;;;;;2.67;2.28;;;31.30;49.20;;;30.23;33.01;100314.63;10302185;28;98731;-84
2022/07/02 17:19:37;;;;;;;6.30;2.20;;;31.20;49.20;;;29.99;33.34;100318.25;10291652;28;96665;-83
2022/07/02 17:24:40;;;;;;;3.28;2.28;;;31.00;49.50;;;29.81;33.93;100324.50;10292909;28;96662;-79
2022/07/02 17:29:44;;;;;;;5.07;2.40;;;30.80;49.90;;;29.57;34.10;100321.78;10287106;28;97560;-83
2022/07/02 17:34:47;;;;;;;3.30;2.28;;;30.50;50.30;;;29.24;34.82;100334.41;10293827;28;96530;-84
2022/07/02 17:39:50;;;;;;;2.53;2.28;;;30.20;50.90;;;28.92;35.43;100326.72;10301509;28;96713;-82
2022/07/02 17:44:53;;;;;;;3.47;2.45;;;29.90;51.20;;;28.53;35.89;100320.19;10294131;28;97260;-82
2022/07/02 17:49:56;;;;;;;3.38;2.45;;;29.50;51.70;;;28.10;36.44;100319.06;10291316;28;96716;-81
2022/07/02 17:55:06;;;;;;;3.08;2.33;;;29.10;52.30;;;27.74;37.51;100329.31;10262212;28;96674;-82
2022/07/02 18:00:16;;;;;;;3.88;2.33;;;28.70;52.70;;;27.47;37.99;100313.28;10298858;28;98350;-83
2022/07/02 18:05:19;;;;;;;2.70;2.50;;;28.40;53.30;;;27.25;38.39;100316.31;10278218;28;97292;-82
2022/07/02 18:10:22;;;;;;;3.70;2.83;;;28.30;53.70;;;27.00;38.74;100313.59;10311486;28;99188;-82
2022/07/02 18:15:25;;;;;;;5.03;2.50;;;28.00;54.10;;;26.73;39.45;100320.13;10301012;28;96651;-82
2022/07/02 18:20:28;;;;;;;4.32;2.85;;;27.70;54.60;;;26.51;39.73;100325.84;10282938;28;96731;-84
2022/07/02 18:25:31;;;;;;;4.25;2.72;;;27.50;55.00;;;26.30;40.21;100327.66;10311644;28;97043;-84
2022/07/02 18:30:37;;;;;;;3.00;2.70;;;27.30;55.40;;;26.12;40.82;100314.53;10272788;28;98837;-85
2022/07/02 18:35:40;;;;;;;4.10;2.83;;;27.10;55.80;;;25.94;41.42;100329.44;10311708;28;97217;-87
2022/07/02 18:40:43;;;;;;;8.23;3.03;;;27.00;56.20;;;25.76;41.81;100329.91;10279418;28;96853;-86
2022/07/02 18:45:48;;;;;;;7.25;2.92;;;26.80;56.60;;;25.61;42.25;100338.81;10288866;28;97045;-81
2022/07/02 18:50:51;;;;;;;5.95;3.08;;;26.60;57.00;;;25.46;42.56;100349.59;10290508;28;97767;-81
2022/07/02 18:55:54;;;;;;;7.70;3.75;;;26.50;57.40;;;25.30;43.52;100352.19;10294144;28;97719;-82
2022/07/02 19:00:58;;;;;;;4.45;3.45;;;26.30;57.80;;;25.17;43.81;100358.09;10281742;28;96912;-80
2022/07/02 19:06:02;;;;;;;3.97;3.67;;;26.20;58.30;;;25.00;44.45;100358.19;10289845;28;97522;-80
2022/07/02 19:11:06;;;;;;;4.43;3.78;;;26.00;58.80;;;24.84;44.69;100364.59;10313068;28;96725;-81
2022/07/02 19:16:09;;;;;;;5.40;4.07;;;25.90;59.10;;;24.70;45.17;100372.31;10312500;28;97353;-81
2022/07/02 19:21:13;;;;;;;4.30;3.85;;;25.70;59.30;;;24.63;45.50;100379.88;10309112;28;96681;-82
2022/07/02 19:31:39;;;;;;;6.15;3.80;;;25.50;59.90;;;24.30;46.20;100387.09;10283044;28;97371;-82
2022/07/02 19:36:42;;;;;;;3.97;3.58;;;25.30;60.30;;;24.21;46.43;100393.22;10295042;28;96706;-81
2022/07/02 19:41:45;;;;;;;6.18;3.90;;;25.20;60.60;;;24.14;46.80;100396.13;10296219;28;97297;-81
2022/07/02 19:46:48;;;;;;;5.13;4.00;;;25.20;60.90;;;24.10;46.93;100403.13;10290221;28;97304;-81
2022/07/02 19:51:51;;;;;;;5.28;3.72;;;25.20;60.90;;;23.90;47.37;100386.59;10312839;28;96824;-81
2022/07/02 19:56:54;;;;;;;8.98;5.05;;;25.00;61.10;;;23.74;47.07;100399.94;10288436;28;98171;-80
2022/07/02 20:01:57;;;;;;;3.70;3.40;;;24.90;61.40;;;23.62;47.74;100412.78;10290470;28;96694;-80
2022/07/02 20:07:00;;;;;;;4.85;3.70;;;24.80;61.60;;;23.53;47.80;100425.09;10291780;28;97524;-79
2022/07/02 20:12:04;;;;;;;5.63;3.95;;;24.70;61.60;;;23.38;48.23;100417.53;10291966;28;96789;-78
2022/07/02 20:17:07;;;;;;;5.07;3.80;;;24.60;61.90;;;23.32;47.99;100428.53;10309015;28;97147;-79
2022/07/02 20:22:10;;;;;;;7.80;3.75;;;24.40;62.10;;;23.23;48.48;100434.38;10291573;28;98097;-79
2022/07/02 20:27:13;;;;;;;6.13;3.97;;;24.40;62.30;;;23.16;48.77;100450.00;10295570;28;96725;-80
2022/07/02 20:32:16;;;;;;;6.45;3.40;;;24.30;62.50;;;23.12;49.12;100448.81;10291857;28;96641;-81
2022/07/02 20:37:19;;;;;;;5.30;3.90;;;24.20;62.70;;;22.98;49.60;100450.22;10280191;28;96607;-81
2022/07/02 20:42:22;;;;;;;5.70;3.67;;;24.10;63.10;;;22.82;50.04;100456.38;10290046;28;96746;-82
2022/07/02 20:47:27;;;;;;;4.35;3.95;;;24.00;63.60;;;22.71;50.19;100458.88;10283697;28;97534;-81
2022/07/02 20:52:30;;;;;;;4.00;3.60;;;23.80;63.80;;;22.66;50.26;100458.78;10265010;28;99133;-81
2022/07/02 20:57:38;;;;;;;4.25;3.85;;;23.80;64.00;;;22.64;50.54;100466.31;10265513;28;97659;-80
2022/07/02 21:02:41;;;;;;;4.05;3.60;;;23.80;64.00;;;22.60;50.78;100469.75;10276114;28;99068;-88
2022/07/02 21:07:44;;;;;;;4.18;3.78;;;23.80;64.20;;;22.54;51.21;100466.13;10299566;22;98466;-83
2022/07/02 21:12:55;;;;;;;3.90;3.60;;;23.80;64.50;;;22.50;51.56;100470.38;10219216;28;98175;-82
2022/07/02 21:17:59;;;;;;;4.35;3.53;;;23.70;64.60;;;22.43;51.64;100488.63;10245057;28;96535;-82